Time;durP1;ratioP1;P1;durP2;ratioP2;P2;SDS_P1;SDS_P2;PMS_P1;PMS_P2;Temp;Humidity;BMP_temperature;BMP_pressure;BME280_temperature;BME280_humidity;BME280_pressure;Samples;Min_cycle;Max_cycle;Signal;HPM_P1;HPM_P2
2024/05/08 00:00:49;;;;;;;0.70;0.70;;;;;;;;;;5524726;26;20370;-83
2024/05/08 00:03:15;;;;;;;0.80;0.80;;;;;;;;;;5524514;26;20359;-84
2024/05/08 00:05:41;;;;;;;0.90;0.80;;;;;;;;;;5522132;26;20670;-83
2024/05/08 00:08:18;;;;;;;1.05;0.80;;;;;;;;;;5524460;26;20316;-84
2024/05/08 00:10:44;;;;;;;0.80;0.80;;;;;;;;;;5498120;26;20386;-84
2024/05/08 00:13:10;;;;;;;1.43;0.80;;;;;;;;;;5524190;26;20327;-84
2024/05/08 00:15:36;;;;;;;1.27;0.90;;;;;;;;;;5524293;26;20323;-84
2024/05/08 00:18:02;;;;;;;0.90;0.90;;;;;;;;;;5524229;26;20332;-84
2024/05/08 00:20:28;;;;;;;2.92;1.00;;;;;;;;;;5524516;26;20370;-84
2024/05/08 00:22:54;;;;;;;1.00;0.90;;;;;;;;;;5502959;26;20328;-83
2024/05/08 00:25:20;;;;;;;0.70;0.70;;;;;;;;;;5524196;26;20328;-84
2024/05/08 00:27:46;;;;;;;1.05;0.90;;;;;;;;;;5524372;26;20368;-84
2024/05/08 00:30:12;;;;;;;1.00;1.00;;;;;;;;;;5524567;26;20920;-84
2024/05/08 00:32:38;;;;;;;1.20;1.10;;;;;;;;;;5524546;26;20387;-84
2024/05/08 00:35:04;;;;;;;1.00;0.90;;;;;;;;;;5523775;26;20327;-84
2024/05/08 00:37:31;;;;;;;2.53;1.08;;;;;;;;;;5524431;26;20824;-83
2024/05/08 00:39:57;;;;;;;0.90;0.90;;;;;;;;;;5524350;26;20331;-83
2024/05/08 00:42:23;;;;;;;0.70;0.70;;;;;;;;;;5522337;26;20749;-84
2024/05/08 00:44:49;;;;;;;2.40;1.00;;;;;;;;;;5524308;26;20323;-84
2024/05/08 00:47:16;;;;;;;1.00;1.00;;;;;;;;;;5491408;26;20366;-83
2024/05/08 00:49:43;;;;;;;0.90;0.90;;;;;;;;;;5524079;26;20378;-84
2024/05/08 00:52:09;;;;;;;1.27;1.17;;;;;;;;;;5524499;26;20392;-84
2024/05/08 00:54:35;;;;;;;1.00;1.00;;;;;;;;;;5524044;26;20454;-84
2024/05/08 00:57:02;;;;;;;1.20;1.10;;;;;;;;;;5523879;26;20324;-84
2024/05/08 00:59:28;;;;;;;1.05;0.95;;;;;;;;;;5523561;26;20316;-84
2024/05/08 01:01:54;;;;;;;1.00;1.00;;;;;;;;;;5524087;26;20320;-84
2024/05/08 01:04:20;;;;;;;0.88;0.88;;;;;;;;;;5523581;26;20425;-83
2024/05/08 01:06:46;;;;;;;0.90;0.90;;;;;;;;;;5522876;26;20340;-83
2024/05/08 01:09:12;;;;;;;0.95;0.95;;;;;;;;;;5526036;26;20425;-83
2024/05/08 01:11:55;;;;;;;0.80;0.80;;;;;;;;;;5520085;26;20327;-83
2024/05/08 01:14:21;;;;;;;0.80;0.80;;;;;;;;;;5527136;26;20315;-83
2024/05/08 01:16:50;;;;;;;0.80;0.80;;;;;;;;;;5527698;26;20331;-83
2024/05/08 01:19:16;;;;;;;0.90;0.90;;;;;;;;;;5527162;26;20316;-83
2024/05/08 01:21:42;;;;;;;1.20;1.00;;;;;;;;;;5518909;26;20396;-84
2024/05/08 01:24:08;;;;;;;1.20;1.15;;;;;;;;;;5514782;26;20320;-83
2024/05/08 01:26:35;;;;;;;1.00;1.00;;;;;;;;;;5527226;26;20316;-83
2024/05/08 01:29:01;;;;;;;1.97;1.10;;;;;;;;;;5527069;26;20410;-83
2024/05/08 01:31:27;;;;;;;1.20;1.13;;;;;;;;;;5527053;26;20342;-83
2024/05/08 01:33:53;;;;;;;1.30;1.10;;;;;;;;;;5526925;26;20327;-84
2024/05/08 01:36:19;;;;;;;1.50;1.17;;;;;;;;;;5526795;26;20379;-83
2024/05/08 01:38:45;;;;;;;1.55;1.10;;;;;;;;;;5526565;26;20352;-83
2024/05/08 01:41:11;;;;;;;1.40;1.20;;;;;;;;;;5526736;26;20323;-83
2024/05/08 01:43:37;;;;;;;1.10;1.10;;;;;;;;;;5524596;26;20357;-83
2024/05/08 01:46:03;;;;;;;1.70;1.40;;;;;;;;;;5526873;26;20324;-83
2024/05/08 01:48:29;;;;;;;1.35;1.25;;;;;;;;;;5526839;26;20832;-83
2024/05/08 01:50:55;;;;;;;1.30;1.20;;;;;;;;;;5526503;26;20335;-83
2024/05/08 01:53:21;;;;;;;1.30;1.20;;;;;;;;;;5527134;26;20857;-83
2024/05/08 01:55:47;;;;;;;1.10;1.10;;;;;;;;;;5527193;26;20332;-83
2024/05/08 01:58:13;;;;;;;1.60;1.25;;;;;;;;;;5527333;26;20706;-83
2024/05/08 02:00:39;;;;;;;1.90;1.40;;;;;;;;;;5526646;26;20324;-83
2024/05/08 02:03:09;;;;;;;1.60;1.50;;;;;;;;;;5526679;26;21155;-83
2024/05/08 02:05:34;;;;;;;1.52;1.42;;;;;;;;;;5526651;26;20328;-83
2024/05/08 02:08:00;;;;;;;1.80;1.42;;;;;;;;;;5526526;26;20384;-83
2024/05/08 02:10:26;;;;;;;1.70;1.58;;;;;;;;;;5526352;26;20324;-83
2024/05/08 02:12:52;;;;;;;1.70;1.60;;;;;;;;;;5526280;26;20364;-83
2024/05/08 02:15:18;;;;;;;1.67;1.58;;;;;;;;;;5526115;26;20327;-83
2024/05/08 02:17:44;;;;;;;1.70;1.60;;;;;;;;;;5526207;26;20324;-83
2024/05/08 02:20:11;;;;;;;1.60;1.50;;;;;;;;;;5525005;26;20907;-83
2024/05/08 02:22:37;;;;;;;2.10;1.90;;;;;;;;;;5505402;26;20370;-83
2024/05/08 02:25:03;;;;;;;2.05;1.85;;;;;;;;;;5526383;26;20433;-83
2024/05/08 02:27:29;;;;;;;1.73;1.63;;;;;;;;;;5526122;26;20444;-83
2024/05/08 02:29:55;;;;;;;2.03;1.92;;;;;;;;;;5525623;26;20367;-83
2024/05/08 02:32:21;;;;;;;2.03;1.92;;;;;;;;;;5526385;26;20876;-83
2024/05/08 02:34:47;;;;;;;2.30;2.17;;;;;;;;;;5526394;26;20378;-84
2024/05/08 02:37:13;;;;;;;2.35;2.15;;;;;;;;;;5526046;26;20331;-83
2024/05/08 02:39:39;;;;;;;2.40;2.20;;;;;;;;;;5526035;26;20320;-84
2024/05/08 02:42:05;;;;;;;2.47;2.30;;;;;;;;;;5526063;26;20852;-84
2024/05/08 02:44:31;;;;;;;2.67;2.47;;;;;;;;;;5523370;26;20366;-83
2024/05/08 02:46:57;;;;;;;2.40;2.20;;;;;;;;;;5525227;26;20320;-83
2024/05/08 02:49:23;;;;;;;2.67;2.47;;;;;;;;;;5525922;26;20335;-83
2024/05/08 02:51:49;;;;;;;2.50;2.30;;;;;;;;;;5525555;26;20316;-83
2024/05/08 02:54:14;;;;;;;2.60;2.40;;;;;;;;;;5525427;26;20372;-83
2024/05/08 02:56:40;;;;;;;2.10;2.00;;;;;;;;;;5525475;26;20340;-83
2024/05/08 02:59:06;;;;;;;2.53;2.33;;;;;;;;;;5525610;26;20375;-84
2024/05/08 03:01:33;;;;;;;2.45;2.30;;;;;;;;;;5525386;26;20331;-83
2024/05/08 03:03:59;;;;;;;2.90;2.40;;;;;;;;;;5518773;26;20465;-84
2024/05/08 03:06:25;;;;;;;2.60;2.40;;;;;;;;;;5525063;26;20327;-83
2024/05/08 03:08:51;;;;;;;3.10;2.60;;;;;;;;;;5525362;26;20316;-84
2024/05/08 03:11:21;;;;;;;3.13;2.85;;;;;;;;;;5525736;26;20360;-83
2024/05/08 03:13:47;;;;;;;3.00;2.70;;;;;;;;;;5525848;26;20449;-84
2024/05/08 03:16:20;;;;;;;3.03;2.83;;;;;;;;;;5524967;26;20864;-83
2024/05/08 03:18:46;;;;;;;2.90;2.70;;;;;;;;;;5525451;26;20371;-83
2024/05/08 03:21:12;;;;;;;2.95;2.75;;;;;;;;;;5524830;26;20328;-83
2024/05/08 03:23:38;;;;;;;2.73;2.53;;;;;;;;;;5504934;26;20717;-83
2024/05/08 03:26:07;;;;;;;2.45;2.28;;;;;;;;;;5525406;26;20320;-83
2024/05/08 03:28:34;;;;;;;2.60;2.40;;;;;;;;;;5523880;26;20315;-84
2024/05/08 03:31:01;;;;;;;3.22;3.03;;;;;;;;;;5502601;26;20372;-85
2024/05/08 03:33:27;;;;;;;2.90;2.70;;;;;;;;;;5525043;26;20331;-84
2024/05/08 03:35:53;;;;;;;2.75;2.45;;;;;;;;;;5524757;26;20323;-84
2024/05/08 03:38:22;;;;;;;2.58;2.38;;;;;;;;;;5525160;26;20319;-83
2024/05/08 03:40:49;;;;;;;2.92;2.30;;;;;;;;;;5524902;26;20666;-84
2024/05/08 03:43:18;;;;;;;3.20;2.53;;;;;;;;;;5492060;26;20424;-84
2024/05/08 03:45:45;;;;;;;2.20;2.10;;;;;;;;;;5522590;26;20328;-83
2024/05/08 03:48:11;;;;;;;2.40;2.20;;;;;;;;;;5524680;26;20355;-83
2024/05/08 03:50:37;;;;;;;2.55;2.20;;;;;;;;;;5514774;26;20323;-83
2024/05/08 03:53:03;;;;;;;2.60;2.50;;;;;;;;;;5512161;26;20320;-83
2024/05/08 03:55:29;;;;;;;2.28;2.17;;;;;;;;;;5524821;26;20421;-83
2024/05/08 03:57:55;;;;;;;2.58;2.38;;;;;;;;;;5526046;26;20363;-84
2024/05/08 04:00:21;;;;;;;2.53;2.33;;;;;;;;;;5493256;26;20336;-85
2024/05/08 04:02:47;;;;;;;2.25;2.00;;;;;;;;;;5525081;26;20360;-85
2024/05/08 04:05:13;;;;;;;2.20;2.10;;;;;;;;;;5524727;26;20359;-83
2024/05/08 04:07:42;;;;;;;3.17;2.40;;;;;;;;;;5516387;26;20820;-83
2024/05/08 04:10:08;;;;;;;2.75;2.55;;;;;;;;;;5524304;26;20812;-83
2024/05/08 04:12:34;;;;;;;2.38;2.20;;;;;;;;;;5525247;26;20352;-83
2024/05/08 04:15:00;;;;;;;2.17;2.08;;;;;;;;;;5524374;26;20734;-83
2024/05/08 04:17:26;;;;;;;2.45;2.35;;;;;;;;;;5523942;26;20319;-83
2024/05/08 04:19:51;;;;;;;2.80;2.60;;;;;;;;;;5524279;26;20328;-83
2024/05/08 04:22:17;;;;;;;2.20;2.10;;;;;;;;;;5524237;26;20327;-83
2024/05/08 04:24:43;;;;;;;2.80;2.60;;;;;;;;;;5524898;26;20856;-83
2024/05/08 04:27:09;;;;;;;2.80;2.60;;;;;;;;;;5524912;26;20413;-83
2024/05/08 04:29:35;;;;;;;2.70;2.50;;;;;;;;;;5524791;26;20320;-83
2024/05/08 04:32:01;;;;;;;2.60;2.50;;;;;;;;;;5524288;26;20436;-83
2024/05/08 04:34:27;;;;;;;3.13;2.83;;;;;;;;;;5524297;26;20670;-83
2024/05/08 04:36:53;;;;;;;3.17;2.88;;;;;;;;;;5523938;26;20324;-83
2024/05/08 04:39:20;;;;;;;3.00;2.80;;;;;;;;;;5524355;26;20479;-83
2024/05/08 04:41:46;;;;;;;3.90;3.00;;;;;;;;;;5513498;25;20336;-83
2024/05/08 04:44:12;;;;;;;3.00;2.80;;;;;;;;;;5515543;26;20422;-83
2024/05/08 04:46:38;;;;;;;3.17;2.97;;;;;;;;;;5515864;26;20328;-83
2024/05/08 04:49:04;;;;;;;3.20;3.00;;;;;;;;;;5523384;26;20320;-83
2024/05/08 04:51:30;;;;;;;3.00;2.80;;;;;;;;;;5515392;25;20396;-83
2024/05/08 04:53:56;;;;;;;3.05;2.85;;;;;;;;;;5520011;26;20334;-83
2024/05/08 04:56:23;;;;;;;3.20;3.00;;;;;;;;;;5523624;26;20376;-83
2024/05/08 04:58:49;;;;;;;3.42;3.22;;;;;;;;;;5518503;26;20324;-83
2024/05/08 05:01:15;;;;;;;3.50;3.20;;;;;;;;;;5544458;25;20436;-83
2024/05/08 05:03:41;;;;;;;3.10;2.90;;;;;;;;;;5523772;26;20339;-83
2024/05/08 05:06:07;;;;;;;3.65;3.30;;;;;;;;;;5518555;26;20746;-83
2024/05/08 05:08:33;;;;;;;3.40;3.20;;;;;;;;;;5523863;26;20327;-84
2024/05/08 05:11:00;;;;;;;3.67;3.38;;;;;;;;;;5524619;26;20339;-84
2024/05/08 05:13:26;;;;;;;3.67;3.38;;;;;;;;;;5511517;26;20887;-83
2024/05/08 05:15:53;;;;;;;3.20;2.97;;;;;;;;;;5518881;26;20328;-84
2024/05/08 05:18:20;;;;;;;3.65;3.45;;;;;;;;;;5508493;26;20322;-84
2024/05/08 05:20:46;;;;;;;3.70;3.40;;;;;;;;;;5506432;26;20433;-84
2024/05/08 05:23:18;;;;;;;5.10;3.80;;;;;;;;;;5523472;26;20771;-85
2024/05/08 05:25:47;;;;;;;3.80;3.50;;;;;;;;;;5523625;26;20332;-84
2024/05/08 05:28:13;;;;;;;4.70;4.30;;;;;;;;;;5522970;26;20335;-83
2024/05/08 05:30:47;;;;;;;5.25;4.85;;;;;;;;;;5523334;26;20328;-83
2024/05/08 05:35:58;;;;;;;3.50;3.30;;;;;;;;;;5496071;26;20448;-83
2024/05/08 05:38:24;;;;;;;3.90;3.60;;;;;;;;;;5494601;26;20330;-83
2024/05/08 05:40:50;;;;;;;4.00;3.70;;;;;;;;;;5508201;26;20943;-83
2024/05/08 05:46:01;;;;;;;4.35;4.05;;;;;;;;;;5524668;26;20386;-83
2024/05/08 05:48:27;;;;;;;4.32;3.95;;;;;;;;;;5524290;26;20351;-83
2024/05/08 05:50:53;;;;;;;4.43;4.03;;;;;;;;;;5524495;26;20340;-83
2024/05/08 05:53:20;;;;;;;4.10;3.80;;;;;;;;;;5524708;26;20447;-83
2024/05/08 05:55:46;;;;;;;4.38;4.00;;;;;;;;;;5528780;26;20315;-84
2024/05/08 05:58:15;;;;;;;4.80;4.28;;;;;;;;;;5528292;26;20402;-83
2024/05/08 06:00:41;;;;;;;4.68;4.38;;;;;;;;;;5528466;26;20424;-83
2024/05/08 06:03:07;;;;;;;4.07;3.78;;;;;;;;;;5527746;26;20668;-83
2024/05/08 06:05:37;;;;;;;4.88;4.50;;;;;;;;;;5526411;26;20323;-85
2024/05/08 06:08:03;;;;;;;4.63;4.22;;;;;;;;;;5526534;26;20319;-82
2024/05/08 06:10:30;;;;;;;4.60;4.20;;;;;;;;;;5526532;26;20421;-82
2024/05/08 06:12:56;;;;;;;5.10;4.38;;;;;;;;;;5526530;26;20821;-82
2024/05/08 06:15:22;;;;;;;4.43;4.13;;;;;;;;;;5520589;26;21090;-80
2024/05/08 06:17:48;;;;;;;4.27;3.90;;;;;;;;;;5494421;26;20323;-81
2024/05/08 06:20:14;;;;;;;5.47;4.85;;;;;;;;;;5525160;26;20323;-81
2024/05/08 06:22:40;;;;;;;4.55;4.25;;;;;;;;;;5525754;26;20366;-81
2024/05/08 06:25:06;;;;;;;4.78;4.38;;;;;;;;;;5525748;26;20824;-81
2024/05/08 06:27:32;;;;;;;4.30;4.00;;;;;;;;;;5508920;26;20324;-81
2024/05/08 06:29:58;;;;;;;5.10;4.70;;;;;;;;;;5526381;26;20714;-81
2024/05/08 06:32:24;;;;;;;4.60;4.25;;;;;;;;;;5526439;26;20327;-81
2024/05/08 06:34:50;;;;;;;5.53;5.13;;;;;;;;;;5525913;26;21239;-81
2024/05/08 06:37:16;;;;;;;4.43;4.13;;;;;;;;;;5525620;26;20336;-81
2024/05/08 06:39:42;;;;;;;5.30;4.85;;;;;;;;;;5525570;26;20860;-81
2024/05/08 06:42:08;;;;;;;5.30;4.80;;;;;;;;;;5525648;26;20457;-81
2024/05/08 06:44:34;;;;;;;4.63;4.32;;;;;;;;;;5525589;26;20348;-81
2024/05/08 06:47:00;;;;;;;5.07;4.57;;;;;;;;;;5525610;26;20359;-81
2024/05/08 06:49:26;;;;;;;5.00;4.60;;;;;;;;;;5525803;26;20316;-81
2024/05/08 06:51:52;;;;;;;4.20;3.90;;;;;;;;;;5525313;26;20379;-81
2024/05/08 06:54:18;;;;;;;4.95;4.55;;;;;;;;;;5525144;26;20346;-81
2024/05/08 06:56:44;;;;;;;4.60;4.20;;;;;;;;;;5525425;26;20328;-81
2024/05/08 06:59:10;;;;;;;4.70;4.40;;;;;;;;;;5525049;26;20820;-81
2024/05/08 07:01:36;;;;;;;4.65;4.35;;;;;;;;;;5525401;26;20324;-81
2024/05/08 07:04:03;;;;;;;5.03;4.17;;;;;;;;;;5525842;26;20865;-81
2024/05/08 07:06:29;;;;;;;4.30;4.00;;;;;;;;;;5527565;26;20869;-81
2024/05/08 07:08:55;;;;;;;4.68;4.28;;;;;;;;;;5527500;26;20315;-81
2024/05/08 07:11:21;;;;;;;4.72;4.32;;;;;;;;;;5528131;26;20327;-81
2024/05/08 07:13:47;;;;;;;4.33;4.00;;;;;;;;;;5529046;26;20895;-81
2024/05/08 07:16:15;;;;;;;4.30;4.00;;;;;;;;;;5522959;26;20331;-81
2024/05/08 07:18:41;;;;;;;4.25;3.90;;;;;;;;;;5530829;26;20387;-81
2024/05/08 07:21:08;;;;;;;4.22;3.83;;;;;;;;;;5527274;26;20320;-81
2024/05/08 07:23:34;;;;;;;4.20;3.90;;;;;;;;;;5507528;26;20324;-81
2024/05/08 07:26:00;;;;;;;4.20;3.90;;;;;;;;;;5527980;26;20364;-81
2024/05/08 07:28:26;;;;;;;4.30;3.92;;;;;;;;;;5527663;26;20359;-81
2024/05/08 07:30:52;;;;;;;4.07;3.78;;;;;;;;;;5527955;26;20351;-81
2024/05/08 07:33:20;;;;;;;4.47;3.90;;;;;;;;;;5528374;26;20323;-81
2024/05/08 07:35:46;;;;;;;4.20;3.90;;;;;;;;;;5527848;26;20319;-81
2024/05/08 07:38:12;;;;;;;3.95;3.65;;;;;;;;;;5528668;26;20437;-81
2024/05/08 07:40:38;;;;;;;4.30;3.90;;;;;;;;;;5527571;26;20360;-81
2024/05/08 07:43:04;;;;;;;4.40;4.10;;;;;;;;;;5529132;26;20323;-81
2024/05/08 07:45:30;;;;;;;3.83;3.53;;;;;;;;;;5529814;26;20346;-81
2024/05/08 07:47:56;;;;;;;4.03;3.72;;;;;;;;;;5528812;26;20319;-81
2024/05/08 07:50:22;;;;;;;3.97;3.67;;;;;;;;;;5528107;26;20363;-81
2024/05/08 07:52:48;;;;;;;4.10;3.80;;;;;;;;;;5528335;26;20355;-81
2024/05/08 07:55:14;;;;;;;3.90;3.60;;;;;;;;;;5530339;26;20364;-81
2024/05/08 07:57:40;;;;;;;4.32;4.03;;;;;;;;;;5528053;26;20390;-81
2024/05/08 08:00:07;;;;;;;4.47;4.18;;;;;;;;;;5528635;26;20824;-81
2024/05/08 08:02:33;;;;;;;3.90;3.60;;;;;;;;;;5527864;26;20368;-81
2024/05/08 08:04:59;;;;;;;4.82;4.43;;;;;;;;;;5527992;26;20352;-81
2024/05/08 08:07:25;;;;;;;5.20;4.80;;;;;;;;;;5530691;26;20328;-81
2024/05/08 08:09:51;;;;;;;5.03;4.63;;;;;;;;;;5527206;26;20857;-82
2024/05/08 08:12:17;;;;;;;5.40;4.82;;;;;;;;;;5527689;26;20317;-81
2024/05/08 08:14:43;;;;;;;5.10;4.70;;;;;;;;;;5532040;26;20324;-82
2024/05/08 08:17:09;;;;;;;4.80;4.40;;;;;;;;;;5525326;26;20935;-81
2024/05/08 08:19:35;;;;;;;4.65;4.30;;;;;;;;;;5524171;26;20335;-81
2024/05/08 08:22:01;;;;;;;4.32;4.03;;;;;;;;;;5511472;26;20330;-81
2024/05/08 08:24:27;;;;;;;4.32;4.03;;;;;;;;;;5517392;26;20315;-81
2024/05/08 08:26:53;;;;;;;3.63;3.38;;;;;;;;;;5528207;26;20335;-82
2024/05/08 08:29:19;;;;;;;4.40;4.00;;;;;;;;;;5530707;26;20323;-82
2024/05/08 08:31:46;;;;;;;4.20;3.80;;;;;;;;;;5526779;26;20312;-82
2024/05/08 08:34:12;;;;;;;4.63;4.22;;;;;;;;;;5526945;26;20363;-82
2024/05/08 08:36:38;;;;;;;4.38;4.03;;;;;;;;;;5528638;26;21033;-82
2024/05/08 08:39:04;;;;;;;4.47;4.07;;;;;;;;;;5528586;26;20327;-82
2024/05/08 08:41:30;;;;;;;4.93;4.53;;;;;;;;;;5529529;26;20327;-82
2024/05/08 08:44:00;;;;;;;5.07;4.68;;;;;;;;;;5527284;26;20339;-82
2024/05/08 08:46:27;;;;;;;5.60;5.20;;;;;;;;;;5532857;26;20352;-82
2024/05/08 08:48:53;;;;;;;5.73;5.20;;;;;;;;;;5530469;26;20634;-81
2024/05/08 08:51:20;;;;;;;5.70;5.30;;;;;;;;;;5524393;26;20417;-82
2024/05/08 08:53:51;;;;;;;5.80;5.40;;;;;;;;;;5524359;26;20669;-82
2024/05/08 08:56:18;;;;;;;5.88;5.43;;;;;;;;;;5525001;26;20735;-81
2024/05/08 08:58:44;;;;;;;5.20;4.80;;;;;;;;;;5525169;26;20818;-82
2024/05/08 09:01:13;;;;;;;5.05;4.68;;;;;;;;;;5525176;26;20328;-82
2024/05/08 09:03:40;;;;;;;5.65;4.47;;;;;;;;;;5524494;26;20399;-82
2024/05/08 09:06:06;;;;;;;4.45;4.05;;;;;;;;;;5523938;26;20351;-82
2024/05/08 09:08:35;;;;;;;5.15;4.75;;;;;;;;;;5524110;26;20332;-82
2024/05/08 09:11:01;;;;;;;5.80;4.47;;;;;;;;;;5527208;26;20387;-82
2024/05/08 09:13:29;;;;;;;4.17;3.87;;;;;;;;;;5521897;26;20328;-82
2024/05/08 09:15:55;;;;;;;4.60;4.30;;;;;;;;;;5526997;26;20379;-82
2024/05/08 09:18:22;;;;;;;4.45;4.15;;;;;;;;;;5530440;26;20750;-82
2024/05/08 09:20:49;;;;;;;4.80;4.15;;;;;;;;;;5527683;26;20359;-82
2024/05/08 09:23:15;;;;;;;4.40;4.10;;;;;;;;;;5506296;26;20840;-82
2024/05/08 09:25:41;;;;;;;4.55;4.15;;;;;;;;;;5527323;26;20368;-82
2024/05/08 09:28:10;;;;;;;4.15;3.85;;;;;;;;;;5531765;26;20319;-82
2024/05/08 09:30:36;;;;;;;5.32;4.90;;;;;;;;;;5531067;26;20352;-82
2024/05/08 09:33:03;;;;;;;4.40;4.00;;;;;;;;;;5503591;26;20338;-81
2024/05/08 09:35:29;;;;;;;5.38;4.97;;;;;;;;;;5529433;26;20331;-81
2024/05/08 09:37:55;;;;;;;5.00;4.63;;;;;;;;;;5528355;26;20868;-81
2024/05/08 09:40:21;;;;;;;4.60;4.20;;;;;;;;;;5527237;26;20323;-82
2024/05/08 09:42:47;;;;;;;5.00;4.60;;;;;;;;;;5527991;26;20355;-82
2024/05/08 09:45:13;;;;;;;5.10;4.80;;;;;;;;;;5527124;26;20384;-81
2024/05/08 09:47:51;;;;;;;4.82;4.45;;;;;;;;;;5527175;26;20412;-82
2024/05/08 09:50:18;;;;;;;4.78;4.32;;;;;;;;;;5526011;26;20328;-81
2024/05/08 09:52:46;;;;;;;3.55;3.25;;;;;;;;;;5526735;26;20365;-81
2024/05/08 09:55:12;;;;;;;3.65;3.35;;;;;;;;;;5526964;26;20331;-81
2024/05/08 09:57:39;;;;;;;3.85;3.55;;;;;;;;;;5494093;26;20383;-81
2024/05/08 10:00:09;;;;;;;3.50;3.20;;;;;;;;;;5526619;26;20650;-81
2024/05/08 10:02:36;;;;;;;3.42;3.13;;;;;;;;;;5527526;26;20936;-81
2024/05/08 10:05:03;;;;;;;2.60;2.40;;;;;;;;;;5526862;26;20331;-81
2024/05/08 10:07:47;;;;;;;2.60;2.40;;;;;;;;;;5526519;26;20828;-81
2024/05/08 10:10:14;;;;;;;2.97;2.72;;;;;;;;;;5527099;26;20328;-81
2024/05/08 10:12:40;;;;;;;3.10;2.60;;;;;;;;;;5526589;26;20372;-81
2024/05/08 10:15:07;;;;;;;3.03;2.83;;;;;;;;;;5526699;26;20316;-81
2024/05/08 10:17:35;;;;;;;3.53;3.22;;;;;;;;;;5526760;26;20363;-81
2024/05/08 10:20:01;;;;;;;2.90;2.70;;;;;;;;;;5526719;26;20465;-81
2024/05/08 10:22:28;;;;;;;2.85;2.60;;;;;;;;;;5502292;26;20318;-81
2024/05/08 10:25:05;;;;;;;2.80;2.60;;;;;;;;;;5525680;26;20366;-81
2024/05/08 10:27:33;;;;;;;2.72;2.47;;;;;;;;;;5526258;26;20331;-81
2024/05/08 10:30:00;;;;;;;2.57;2.37;;;;;;;;;;5525754;26;20358;-81
2024/05/08 10:32:31;;;;;;;2.55;2.35;;;;;;;;;;5526574;26;20323;-81
2024/05/08 10:34:57;;;;;;;2.95;2.38;;;;;;;;;;5525909;26;20350;-81
2024/05/08 10:37:23;;;;;;;1.95;1.85;;;;;;;;;;5526933;26;20821;-81
2024/05/08 10:39:50;;;;;;;2.75;2.55;;;;;;;;;;5526363;26;20328;-81
2024/05/08 10:42:16;;;;;;;2.20;2.00;;;;;;;;;;5524908;26;20315;-81
2024/05/08 10:44:42;;;;;;;2.15;1.95;;;;;;;;;;5526564;26;20331;-81
2024/05/08 10:47:09;;;;;;;2.85;2.65;;;;;;;;;;5526088;26;20332;-81
2024/05/08 10:49:35;;;;;;;3.15;2.83;;;;;;;;;;5526002;26;20324;-81
2024/05/08 10:52:01;;;;;;;3.33;3.13;;;;;;;;;;5525799;26;20413;-81
2024/05/08 10:54:27;;;;;;;2.40;2.20;;;;;;;;;;5526225;26;20455;-81
2024/05/08 10:56:53;;;;;;;2.20;2.10;;;;;;;;;;5526277;26;20382;-81
2024/05/08 10:59:19;;;;;;;2.53;2.08;;;;;;;;;;5525291;26;20666;-81
2024/05/08 11:01:46;;;;;;;1.75;1.60;;;;;;;;;;5527265;26;20424;-81
2024/05/08 11:04:25;;;;;;;2.10;1.73;;;;;;;;;;5526669;26;20327;-81
2024/05/08 11:06:59;;;;;;;2.40;2.20;;;;;;;;;;5526452;26;20360;-81
2024/05/08 11:09:26;;;;;;;2.78;2.58;;;;;;;;;;5525552;26;20383;-81
2024/05/08 11:11:52;;;;;;;2.00;1.90;;;;;;;;;;5525615;26;20382;-81
2024/05/08 11:14:18;;;;;;;2.72;2.28;;;;;;;;;;5524941;26;20364;-81
2024/05/08 11:16:44;;;;;;;2.38;2.10;;;;;;;;;;5524040;26;20328;-81
2024/05/08 11:19:10;;;;;;;3.00;2.22;;;;;;;;;;5519431;26;20429;-81
2024/05/08 11:21:38;;;;;;;2.80;2.60;;;;;;;;;;5518836;26;20409;-79
2024/05/08 11:24:04;;;;;;;2.85;2.55;;;;;;;;;;5506840;25;20324;-79
2024/05/08 11:26:30;;;;;;;2.45;2.25;;;;;;;;;;5518746;25;20360;-79
2024/05/08 11:28:56;;;;;;;2.70;2.50;;;;;;;;;;5520641;26;20324;-80
2024/05/08 11:31:22;;;;;;;2.25;1.95;;;;;;;;;;5522845;26;20416;-80
2024/05/08 11:33:48;;;;;;;2.40;2.20;;;;;;;;;;5524754;26;20719;-80
2024/05/08 11:36:14;;;;;;;2.20;2.10;;;;;;;;;;5524499;26;20433;-80
2024/05/08 11:38:40;;;;;;;2.97;2.78;;;;;;;;;;5525501;26;20324;-80
2024/05/08 11:41:06;;;;;;;3.90;3.60;;;;;;;;;;5538212;25;20409;-80
2024/05/08 11:43:32;;;;;;;4.90;4.50;;;;;;;;;;5498448;26;20334;-80
2024/05/08 11:45:58;;;;;;;4.43;4.03;;;;;;;;;;5525855;26;20774;-80
2024/05/08 11:48:24;;;;;;;4.47;3.90;;;;;;;;;;5546374;25;20328;-80
2024/05/08 11:50:50;;;;;;;4.53;4.05;;;;;;;;;;5525067;25;20665;-80
2024/05/08 11:53:16;;;;;;;4.43;4.13;;;;;;;;;;5516868;26;20323;-80
2024/05/08 11:55:42;;;;;;;3.78;3.47;;;;;;;;;;5516620;26;20327;-80
2024/05/08 11:58:08;;;;;;;4.00;3.70;;;;;;;;;;5513272;25;20364;-80
2024/05/08 12:00:34;;;;;;;4.07;3.67;;;;;;;;;;5505316;26;20329;-80
2024/05/08 12:03:00;;;;;;;4.35;3.95;;;;;;;;;;5506778;26;20319;-80
2024/05/08 12:05:26;;;;;;;4.68;4.10;;;;;;;;;;5525438;26;20423;-80
2024/05/08 12:07:52;;;;;;;4.00;3.70;;;;;;;;;;5524876;26;20327;-80
2024/05/08 12:10:18;;;;;;;3.58;3.28;;;;;;;;;;5525215;26;20312;-80
2024/05/08 12:12:44;;;;;;;3.85;3.55;;;;;;;;;;5524970;26;20346;-80
2024/05/08 12:15:10;;;;;;;3.13;2.93;;;;;;;;;;5524835;26;20308;-80
2024/05/08 12:17:36;;;;;;;3.20;3.00;;;;;;;;;;5524363;26;20717;-80
2024/05/08 12:20:02;;;;;;;3.28;2.95;;;;;;;;;;5524415;26;20356;-80
2024/05/08 12:22:29;;;;;;;2.83;2.63;;;;;;;;;;5516520;26;20326;-80
2024/05/08 12:24:55;;;;;;;3.55;3.25;;;;;;;;;;5507368;26;20372;-80
2024/05/08 12:27:20;;;;;;;3.40;3.10;;;;;;;;;;5524449;26;20319;-80
2024/05/08 12:29:46;;;;;;;3.50;3.30;;;;;;;;;;5524611;26;20316;-80
2024/05/08 12:32:13;;;;;;;3.10;2.83;;;;;;;;;;5506909;26;20479;-80
2024/05/08 12:34:39;;;;;;;3.58;3.30;;;;;;;;;;5515202;26;20316;-80
2024/05/08 12:37:05;;;;;;;3.80;2.88;;;;;;;;;;5523772;26;20320;-80
2024/05/08 12:39:30;;;;;;;3.10;2.90;;;;;;;;;;5517909;26;20350;-80
2024/05/08 12:41:56;;;;;;;2.75;2.55;;;;;;;;;;5515854;26;20320;-80
2024/05/08 12:44:23;;;;;;;3.75;2.50;;;;;;;;;;5524163;26;20324;-80
2024/05/08 12:46:49;;;;;;;3.28;3.00;;;;;;;;;;5497372;26;20414;-80
2024/05/08 12:49:15;;;;;;;2.95;2.65;;;;;;;;;;5523488;26;20403;-80
2024/05/08 12:51:41;;;;;;;3.30;3.00;;;;;;;;;;5516592;26;20401;-80
2024/05/08 12:54:06;;;;;;;2.70;2.50;;;;;;;;;;5505063;26;20367;-80
2024/05/08 12:56:33;;;;;;;2.63;2.42;;;;;;;;;;5524315;26;20402;-80
2024/05/08 12:58:59;;;;;;;3.08;2.83;;;;;;;;;;5496578;26;20361;-80
2024/05/08 13:01:27;;;;;;;3.23;2.93;;;;;;;;;;5522908;26;20485;-80
2024/05/08 13:03:53;;;;;;;3.15;2.85;;;;;;;;;;5523006;26;20384;-80
2024/05/08 13:06:19;;;;;;;2.40;2.30;;;;;;;;;;5522969;26;20331;-80
2024/05/08 13:08:45;;;;;;;3.10;2.80;;;;;;;;;;5495940;26;20316;-80
2024/05/08 13:11:11;;;;;;;3.50;3.20;;;;;;;;;;5518942;26;20804;-80
2024/05/08 13:13:37;;;;;;;3.08;2.88;;;;;;;;;;5501016;26;20315;-80
2024/05/08 13:16:04;;;;;;;3.13;2.90;;;;;;;;;;5523546;26;20331;-80
2024/05/08 13:18:30;;;;;;;2.65;2.45;;;;;;;;;;5518560;26;20414;-80
2024/05/08 13:20:56;;;;;;;2.60;2.40;;;;;;;;;;5486771;26;20322;-81
2024/05/08 13:23:22;;;;;;;3.10;2.90;;;;;;;;;;5520545;26;20327;-80
2024/05/08 13:25:48;;;;;;;2.50;2.30;;;;;;;;;;5524060;26;20344;-80
2024/05/08 13:28:13;;;;;;;4.40;2.35;;;;;;;;;;5495306;26;20451;-80
2024/05/08 13:30:40;;;;;;;1.92;1.83;;;;;;;;;;5523106;26;20482;-80
2024/05/08 13:33:06;;;;;;;2.83;2.63;;;;;;;;;;5523537;26;20387;-80
2024/05/08 13:35:32;;;;;;;2.75;2.25;;;;;;;;;;5523053;26;20767;-80
2024/05/08 13:37:58;;;;;;;2.10;1.90;;;;;;;;;;5522837;26;20320;-80
2024/05/08 13:40:24;;;;;;;2.50;2.40;;;;;;;;;;5522186;26;20335;-80
2024/05/08 13:42:50;;;;;;;2.40;2.20;;;;;;;;;;5522886;26;20354;-80
2024/05/08 13:45:16;;;;;;;2.20;2.10;;;;;;;;;;5523252;26;20363;-80
2024/05/08 13:47:42;;;;;;;2.50;2.30;;;;;;;;;;5522784;26;20359;-80
2024/05/08 13:50:08;;;;;;;2.35;2.10;;;;;;;;;;5521828;26;20332;-80
2024/05/08 13:52:34;;;;;;;2.85;2.30;;;;;;;;;;5522615;26;20879;-80
2024/05/08 13:55:00;;;;;;;2.17;2.00;;;;;;;;;;5522418;26;20319;-80
2024/05/08 13:57:26;;;;;;;2.45;2.25;;;;;;;;;;5522341;26;20708;-80
2024/05/08 13:59:52;;;;;;;2.50;2.30;;;;;;;;;;5522137;26;20327;-80
2024/05/08 14:02:18;;;;;;;2.72;2.20;;;;;;;;;;5522156;26;20697;-80
2024/05/08 14:04:44;;;;;;;2.70;2.50;;;;;;;;;;5522230;26;20315;-80
2024/05/08 14:07:11;;;;;;;2.55;2.35;;;;;;;;;;5522112;26;20331;-80
2024/05/08 14:09:37;;;;;;;2.28;2.00;;;;;;;;;;5522161;26;20722;-80
2024/05/08 14:12:03;;;;;;;2.35;2.15;;;;;;;;;;5521785;26;20360;-80
2024/05/08 14:14:29;;;;;;;3.28;2.42;;;;;;;;;;5522003;26;20316;-80
2024/05/08 14:16:55;;;;;;;2.80;2.60;;;;;;;;;;5523937;26;20348;-80
2024/05/08 14:19:21;;;;;;;2.70;2.50;;;;;;;;;;5516891;26;20323;-79
2024/05/08 14:21:47;;;;;;;2.80;2.60;;;;;;;;;;5522019;26;20327;-79
2024/05/08 14:24:13;;;;;;;2.83;2.63;;;;;;;;;;5524864;26;20350;-79
2024/05/08 14:26:39;;;;;;;2.60;2.40;;;;;;;;;;5526250;26;20320;-79
2024/05/08 14:29:05;;;;;;;2.90;2.53;;;;;;;;;;5526086;26;20344;-80
2024/05/08 14:31:32;;;;;;;2.70;2.50;;;;;;;;;;5526041;26;20351;-80
2024/05/08 14:33:58;;;;;;;3.33;2.53;;;;;;;;;;5526776;26;20323;-80
2024/05/08 14:36:23;;;;;;;2.63;2.42;;;;;;;;;;5525916;26;20410;-80
2024/05/08 14:38:49;;;;;;;3.00;2.53;;;;;;;;;;5502832;26;20318;-80
2024/05/08 14:41:16;;;;;;;3.10;2.60;;;;;;;;;;5474630;26;20318;-80
2024/05/08 14:43:42;;;;;;;2.80;2.60;;;;;;;;;;5519001;26;20673;-80